createdAt,value
2023-01-20T00:01:01.960Z,-2.30
2023-01-20T00:03:28.684Z,-2.30
2023-01-20T00:05:55.417Z,-2.30
2023-01-20T00:08:22.081Z,-2.30
2023-01-20T00:10:48.808Z,-2.30
2023-01-20T00:13:15.519Z,-2.60
2023-01-20T00:15:42.317Z,-2.40
2023-01-20T00:18:08.997Z,-2.50
2023-01-20T00:20:35.675Z,-2.50
2023-01-20T00:23:02.368Z,-2.60
2023-01-20T00:25:29.127Z,-1.20
2023-01-20T00:27:55.849Z,-2.60
2023-01-20T00:30:22.628Z,-2.60
2023-01-20T00:32:49.340Z,-2.60
2023-01-20T00:35:16.088Z,-2.50
2023-01-20T00:37:43.035Z,-2.50
2023-01-20T00:40:10.071Z,-2.50
2023-01-20T00:42:36.838Z,-2.50
2023-01-20T00:45:03.771Z,-2.50
2023-01-20T00:47:30.458Z,-2.50
2023-01-20T00:49:57.136Z,-2.50
2023-01-20T00:52:23.915Z,-2.50
2023-01-20T00:54:50.570Z,-2.40
2023-01-20T00:57:17.268Z,-2.40
2023-01-20T00:59:43.930Z,-2.30
2023-01-20T01:02:10.724Z,-2.20
2023-01-20T01:04:37.431Z,-1.70
2023-01-20T01:07:04.125Z,-2.10
2023-01-20T01:09:32.383Z,-2.10
2023-01-20T01:11:59.176Z,-2.10
2023-01-20T01:14:25.913Z,-2.10
2023-01-20T01:16:52.651Z,-2.00
2023-01-20T01:19:19.321Z,-2.00
2023-01-20T01:21:46.008Z,-2.00
2023-01-20T01:24:12.811Z,-2.00
2023-01-20T01:26:39.461Z,-2.00
2023-01-20T01:29:06.180Z,-2.00
2023-01-20T01:31:33.126Z,-2.00
2023-01-20T01:33:59.904Z,-2.00
2023-01-20T01:36:26.650Z,-2.00
2023-01-20T01:38:58.353Z,-2.00
2023-01-20T01:41:26.118Z,-2.00
2023-01-20T01:44:09.449Z,-2.00
2023-01-20T01:46:36.559Z,-2.00
2023-01-20T01:49:06.652Z,-2.00
2023-01-20T01:51:35.475Z,0.00
2023-01-20T01:54:13.233Z,-2.00
2023-01-20T01:56:41.833Z,-2.00
2023-01-20T01:59:08.997Z,-2.00
2023-01-20T02:01:37.020Z,-2.00
2023-01-20T02:04:06.967Z,-2.00
2023-01-20T02:06:34.735Z,-2.00
2023-01-20T02:09:02.482Z,-2.10
2023-01-20T02:11:30.223Z,-2.10
2023-01-20T02:13:56.898Z,-2.20
2023-01-20T02:16:45.781Z,-2.20
2023-01-20T02:19:22.537Z,-2.30
2023-01-20T02:22:03.506Z,-2.30
2023-01-20T02:24:33.221Z,-2.30
2023-01-20T02:27:05.827Z,-2.30
2023-01-20T02:29:50.797Z,-2.30
2023-01-20T02:32:30.837Z,-2.30
2023-01-20T02:34:59.555Z,-1.50
2023-01-20T02:37:28.267Z,-2.40
2023-01-20T02:39:57.696Z,-2.40
2023-01-20T02:42:42.511Z,-2.50
2023-01-20T02:45:14.264Z,-2.50
2023-01-20T02:47:57.488Z,-2.50
2023-01-20T02:50:27.913Z,-2.50
2023-01-20T02:52:56.832Z,-2.70
2023-01-20T02:55:30.150Z,-2.40
2023-01-20T02:58:00.867Z,-2.70
2023-01-20T03:00:31.229Z,-2.70
2023-01-20T03:02:59.222Z,-2.60
2023-01-20T03:05:31.509Z,-2.60
2023-01-20T03:07:59.330Z,-2.60
2023-01-20T03:10:27.538Z,-2.60
2023-01-20T03:12:58.891Z,-1.90
2023-01-20T03:15:30.310Z,-2.70
2023-01-20T03:17:57.652Z,-2.60
2023-01-20T03:20:24.504Z,-2.60
2023-01-20T03:22:51.182Z,-2.70
2023-01-20T03:25:19.720Z,-2.70
2023-01-20T03:27:46.474Z,-2.70
2023-01-20T03:30:14.239Z,-2.60
2023-01-20T03:32:42.915Z,-2.60
2023-01-20T03:35:09.857Z,-2.50
2023-01-20T03:37:36.494Z,-2.50
2023-01-20T03:40:04.349Z,-3.40
2023-01-20T03:42:33.776Z,-2.40
2023-01-20T03:45:05.728Z,-2.40
2023-01-20T03:47:51.174Z,-2.30
2023-01-20T03:50:36.534Z,-2.40
2023-01-20T03:53:03.122Z,-2.30
2023-01-20T03:55:29.716Z,-2.30
2023-01-20T03:57:58.545Z,-2.30
2023-01-20T04:00:29.766Z,-2.20
2023-01-20T04:02:57.374Z,-2.20
2023-01-20T04:05:24.788Z,-2.10
2023-01-20T04:07:52.917Z,-2.10
2023-01-20T04:10:19.646Z,-2.10
2023-01-20T04:12:46.286Z,-2.00
2023-01-20T04:15:13.417Z,-2.00
2023-01-20T04:17:40.253Z,-2.00
2023-01-20T04:20:10.415Z,-2.00
2023-01-20T04:22:37.005Z,-2.00
2023-01-20T04:25:06.479Z,1.20
2023-01-20T04:27:33.189Z,-2.00
2023-01-20T04:29:59.751Z,-2.00
2023-01-20T04:32:26.381Z,-2.00
2023-01-20T04:34:53.511Z,-2.10
2023-01-20T04:37:20.268Z,-2.10
2023-01-20T04:39:46.949Z,-2.10
2023-01-20T04:42:13.582Z,-2.10
2023-01-20T04:44:40.221Z,-2.00
2023-01-20T04:47:06.843Z,-2.00
2023-01-20T04:49:34.154Z,-2.00
2023-01-20T04:52:00.824Z,-1.90
2023-01-20T04:54:27.477Z,-1.90
2023-01-20T04:56:54.255Z,-1.90
2023-01-20T04:59:20.877Z,-1.90
2023-01-20T05:01:47.648Z,-0.80
2023-01-20T05:04:14.354Z,-1.80
2023-01-20T05:06:43.437Z,-1.80
2023-01-20T05:09:14.069Z,-1.80
2023-01-20T05:11:40.878Z,-1.80
2023-01-20T05:14:07.565Z,-1.90
2023-01-20T05:16:34.982Z,-1.90
2023-01-20T05:19:01.727Z,-2.00
2023-01-20T05:21:28.398Z,-2.00
2023-01-20T05:23:55.176Z,-1.90
2023-01-20T05:26:37.667Z,-1.90
2023-01-20T05:29:04.423Z,-1.90
2023-01-20T05:31:31.244Z,-1.80
2023-01-20T05:33:58.302Z,-1.80
2023-01-20T05:36:24.884Z,-1.80
2023-01-20T05:38:51.523Z,-1.80
2023-01-20T05:41:18.139Z,-1.80
2023-01-20T05:43:44.835Z,-1.80
2023-01-20T05:46:11.686Z,-1.80
2023-01-20T05:48:38.301Z,-1.80
2023-01-20T05:51:04.911Z,-1.80
2023-01-20T05:53:31.466Z,-1.90
2023-01-20T05:55:58.828Z,-1.90
2023-01-20T05:58:25.494Z,-1.90
2023-01-20T06:00:52.237Z,-1.80
2023-01-20T06:03:18.807Z,-1.80
2023-01-20T06:05:45.411Z,-0.20
2023-01-20T06:08:11.980Z,-1.90
2023-01-20T06:10:38.588Z,-1.90
2023-01-20T06:13:05.274Z,-1.90
2023-01-20T06:15:31.862Z,-1.90
2023-01-20T06:17:58.508Z,-1.90
2023-01-20T06:20:25.147Z,-1.90
2023-01-20T06:22:54.839Z,-1.90
2023-01-20T06:25:21.455Z,-2.00
2023-01-20T06:27:48.056Z,-1.90
2023-01-20T06:30:14.959Z,-1.90
2023-01-20T06:32:41.532Z,-1.90
2023-01-20T06:35:10.572Z,-1.80
2023-01-20T06:37:38.019Z,-1.90
2023-01-20T06:40:04.885Z,-1.90
2023-01-20T06:42:32.035Z,-2.00
2023-01-20T06:44:58.595Z,-2.00
2023-01-20T06:47:25.253Z,-2.10
2023-01-20T06:49:51.839Z,-2.10
2023-01-20T06:52:18.431Z,-2.20
2023-01-20T06:54:45.131Z,-2.20
2023-01-20T06:57:11.776Z,-2.30
2023-01-20T06:59:38.382Z,-4.70
2023-01-20T07:02:05.234Z,-2.40
2023-01-20T07:04:31.947Z,-2.50
2023-01-20T07:06:58.586Z,-2.50
2023-01-20T07:09:25.280Z,-2.50
2023-01-20T07:11:51.912Z,-2.60
2023-01-20T07:14:18.589Z,-2.70
2023-01-20T07:16:46.035Z,-2.60
2023-01-20T07:19:12.614Z,-2.70
2023-01-20T07:21:39.423Z,-2.70
2023-01-20T07:24:06.196Z,-2.80
2023-01-20T07:26:32.978Z,-2.90
2023-01-20T07:28:59.884Z,-3.00
2023-01-20T07:31:27.801Z,-3.10
2023-01-20T07:33:55.058Z,-3.10
2023-01-20T07:36:21.819Z,-3.10
2023-01-20T07:38:49.760Z,-3.20
2023-01-20T07:41:18.172Z,-3.10
2023-01-20T07:43:48.839Z,-3.20
2023-01-20T07:46:15.489Z,-3.20
2023-01-20T07:48:42.283Z,-3.20
2023-01-20T07:51:10.200Z,-3.20
2023-01-20T07:53:47.464Z,-3.20
2023-01-20T07:56:14.094Z,-3.20
2023-01-20T07:58:40.753Z,-3.20
2023-01-20T08:01:08.445Z,-3.20
2023-01-20T08:03:35.285Z,-3.20
2023-01-20T08:06:02.884Z,-3.10
2023-01-20T08:08:30.318Z,-3.10
2023-01-20T08:10:58.461Z,-3.00
2023-01-20T08:13:25.339Z,-2.90
2023-01-20T08:15:51.906Z,-3.10
2023-01-20T08:18:18.587Z,-3.00
2023-01-20T08:20:45.176Z,-2.90
2023-01-20T08:23:11.745Z,-2.90
2023-01-20T08:25:38.423Z,-2.80
2023-01-20T08:28:05.635Z,-2.70
2023-01-20T08:30:32.368Z,-2.70
2023-01-20T08:32:59.165Z,-2.60
2023-01-20T08:35:25.812Z,-2.50
2023-01-20T08:37:52.439Z,-2.40
2023-01-20T08:40:19.066Z,-2.30
2023-01-20T08:42:45.799Z,-2.20
2023-01-20T08:45:12.878Z,-2.20
2023-01-20T08:47:44.304Z,-2.10
2023-01-20T08:50:11.710Z,-2.10
2023-01-20T08:52:38.357Z,-2.00
2023-01-20T08:55:05.229Z,-2.00
2023-01-20T08:57:31.887Z,-1.90
2023-01-20T08:59:58.522Z,-1.80
2023-01-20T09:02:25.290Z,-1.70
2023-01-20T09:04:52.263Z,-1.60
2023-01-20T09:07:19.669Z,-1.60
2023-01-20T09:09:46.590Z,0.60
2023-01-20T09:12:13.327Z,-1.40
2023-01-20T09:14:39.965Z,-0.80
2023-01-20T09:17:06.739Z,-1.20
2023-01-20T09:19:33.458Z,-1.10
2023-01-20T09:22:00.047Z,-1.00
2023-01-20T09:24:26.692Z,-0.90
2023-01-20T09:26:53.372Z,-0.90
2023-01-20T09:29:20.459Z,-0.80
2023-01-20T09:31:58.276Z,-0.80
2023-01-20T09:34:26.502Z,-0.80
2023-01-20T09:36:54.054Z,-0.60
2023-01-20T09:39:39.948Z,-0.40
2023-01-20T09:42:34.309Z,-0.30
2023-01-20T09:45:03.996Z,-0.30
2023-01-20T09:47:40.066Z,-0.20
2023-01-20T09:50:34.773Z,-0.10
2023-01-20T09:53:16.260Z,0.00
2023-01-20T09:55:46.728Z,0.20
2023-01-20T09:58:21.031Z,0.30
2023-01-20T10:00:59.100Z,0.30
2023-01-20T10:03:37.554Z,0.40
2023-01-20T10:06:07.006Z,0.50
2023-01-20T10:08:40.974Z,0.50
2023-01-20T10:11:18.211Z,0.50
2023-01-20T10:14:00.259Z,0.60
2023-01-20T10:16:37.904Z,0.60
2023-01-20T10:19:14.843Z,0.70
2023-01-20T10:21:49.458Z,0.70
2023-01-20T10:24:19.681Z,0.70
2023-01-20T10:26:48.513Z,0.80
2023-01-20T10:29:41.566Z,0.90
2023-01-20T10:32:21.627Z,0.90
2023-01-20T10:34:50.019Z,1.00
2023-01-20T10:37:16.957Z,1.00
2023-01-20T10:39:50.043Z,1.00
2023-01-20T10:42:17.731Z,0.90
2023-01-20T10:44:44.640Z,1.00
2023-01-20T10:47:40.944Z,0.90
2023-01-20T10:50:17.024Z,0.80
2023-01-20T10:52:43.891Z,0.90
2023-01-20T10:55:18.354Z,0.80
2023-01-20T10:57:47.813Z,0.80
2023-01-20T11:00:22.611Z,0.80
2023-01-20T11:02:49.582Z,0.80
2023-01-20T11:05:18.020Z,0.80
2023-01-20T11:07:45.249Z,0.80
2023-01-20T11:10:18.202Z,0.70
2023-01-20T11:12:46.174Z,0.60
2023-01-20T11:15:16.052Z,0.70
2023-01-20T11:17:42.707Z,0.80
2023-01-20T11:20:14.686Z,0.90
2023-01-20T11:22:45.501Z,0.90
2023-01-20T11:25:22.575Z,0.90
2023-01-20T11:27:49.364Z,0.90
2023-01-20T11:30:25.200Z,0.90
2023-01-20T11:33:28.328Z,0.90
2023-01-20T11:35:58.785Z,1.00
2023-01-20T11:38:26.597Z,1.00
2023-01-20T11:40:54.090Z,1.00
2023-01-20T11:43:31.674Z,1.00
2023-01-20T11:46:19.539Z,0.90
2023-01-20T11:48:46.441Z,0.90
2023-01-20T11:51:24.879Z,0.80
2023-01-20T11:54:06.033Z,0.90
2023-01-20T11:56:38.033Z,1.00
2023-01-20T11:59:04.776Z,1.00
2023-01-20T12:01:49.350Z,1.00
2023-01-20T12:04:16.119Z,1.10
2023-01-20T12:06:55.920Z,1.00
2023-01-20T12:09:27.059Z,1.00
2023-01-20T12:11:57.596Z,1.10
2023-01-20T12:14:28.763Z,1.10
2023-01-20T12:17:00.426Z,3.60
2023-01-20T12:19:33.603Z,1.00
2023-01-20T12:22:03.611Z,2.30
2023-01-20T12:24:58.591Z,0.90
2023-01-20T12:27:27.078Z,0.70
2023-01-20T12:29:57.232Z,0.60
2023-01-20T12:32:23.982Z,0.50
2023-01-20T12:34:50.792Z,0.50
2023-01-20T12:37:23.433Z,0.50
2023-01-20T12:39:56.156Z,0.50
2023-01-20T12:42:33.132Z,0.60
2023-01-20T12:45:03.982Z,0.60
2023-01-20T12:47:53.134Z,0.60
2023-01-20T12:50:49.307Z,0.70
2023-01-20T12:53:19.098Z,0.80
2023-01-20T12:55:45.772Z,1.00
2023-01-20T12:58:15.468Z,1.10
2023-01-20T13:00:47.201Z,1.10
2023-01-20T13:03:21.930Z,1.10
2023-01-20T13:06:03.854Z,1.10
2023-01-20T13:08:42.801Z,1.10
2023-01-20T13:11:09.428Z,1.10
2023-01-20T13:13:55.668Z,1.10
2023-01-20T13:16:42.661Z,1.10
2023-01-20T13:19:15.316Z,1.10
2023-01-20T13:21:42.619Z,1.10
2023-01-20T13:24:18.686Z,1.10
2023-01-20T13:26:46.798Z,1.00
2023-01-20T13:29:20.724Z,1.00
2023-01-20T13:31:50.291Z,1.00
2023-01-20T13:34:23.049Z,1.00
2023-01-20T13:37:07.210Z,0.90
2023-01-20T13:39:45.587Z,0.90
2023-01-20T13:42:30.728Z,0.90
2023-01-20T13:45:12.669Z,0.90
2023-01-20T13:47:48.898Z,1.00
2023-01-20T13:50:35.037Z,1.00
2023-01-20T13:53:10.918Z,1.00
2023-01-20T13:55:40.510Z,1.10
2023-01-20T13:58:13.160Z,1.40
2023-01-20T14:00:39.743Z,1.10
2023-01-20T14:03:27.883Z,3.20
2023-01-20T14:06:11.287Z,3.50
2023-01-20T14:08:39.618Z,1.00
2023-01-20T14:11:12.350Z,1.10
2023-01-20T14:13:39.754Z,1.00
2023-01-20T14:16:06.757Z,1.10
2023-01-20T14:18:33.535Z,1.00
2023-01-20T14:21:03.592Z,1.00
2023-01-20T14:23:30.618Z,1.00
2023-01-20T14:25:57.934Z,1.00
2023-01-20T14:28:24.585Z,1.00
2023-01-20T14:31:04.840Z,0.90
2023-01-20T14:33:31.524Z,0.90
2023-01-20T14:35:58.113Z,0.90
2023-01-20T14:38:24.760Z,0.90
2023-01-20T14:40:51.401Z,0.90
2023-01-20T14:43:19.600Z,0.90
2023-01-20T14:45:48.252Z,0.90
2023-01-20T14:48:28.297Z,0.80
2023-01-20T14:51:02.690Z,0.80
2023-01-20T14:53:29.427Z,0.90
2023-01-20T14:55:58.830Z,0.90
2023-01-20T14:58:25.480Z,0.80
2023-01-20T15:00:54.638Z,0.90
2023-01-20T15:03:25.586Z,0.90
2023-01-20T15:05:59.528Z,0.80
2023-01-20T15:08:32.239Z,0.80
2023-01-20T15:11:14.263Z,0.80
2023-01-20T15:13:41.814Z,0.80
2023-01-20T15:16:18.863Z,0.80
2023-01-20T15:19:04.295Z,0.80
2023-01-20T15:21:30.914Z,0.70
2023-01-20T15:24:06.513Z,0.70
2023-01-20T15:26:36.780Z,0.70
2023-01-20T15:29:03.331Z,0.70
2023-01-20T15:31:29.944Z,0.60
2023-01-20T15:33:56.553Z,0.50
2023-01-20T15:36:24.356Z,0.50
2023-01-20T15:38:50.931Z,0.30
2023-01-20T15:41:17.682Z,0.20
2023-01-20T15:43:45.551Z,0.20
2023-01-20T15:46:13.324Z,0.10
2023-01-20T15:48:40.590Z,0.00
2023-01-20T15:51:11.931Z,-0.10
2023-01-20T15:53:38.534Z,-0.20
2023-01-20T15:56:05.324Z,-0.20
2023-01-20T15:58:35.306Z,-0.30
2023-01-20T16:01:01.931Z,-0.30
2023-01-20T16:03:28.928Z,-0.40
2023-01-20T16:05:56.024Z,-0.50
2023-01-20T16:08:24.933Z,-0.50
2023-01-20T16:10:51.586Z,-0.60
2023-01-20T16:13:18.248Z,-0.60
2023-01-20T16:15:44.865Z,-0.60
2023-01-20T16:18:16.002Z,-0.80
2023-01-20T16:20:43.988Z,-0.80
2023-01-20T16:23:10.828Z,-0.90
2023-01-20T16:25:37.895Z,-1.10
2023-01-20T16:28:21.416Z,-1.40
2023-01-20T16:30:48.477Z,-1.60
2023-01-20T16:33:16.360Z,-1.70
2023-01-20T16:35:43.101Z,-1.80
2023-01-20T16:38:12.520Z,-1.80
2023-01-20T16:40:44.267Z,-2.00
2023-01-20T16:43:12.605Z,-1.90
2023-01-20T16:45:39.293Z,-1.90
2023-01-20T16:48:07.013Z,-1.90
2023-01-20T16:50:33.632Z,-1.90
2023-01-20T16:53:00.192Z,-1.80
2023-01-20T16:55:26.938Z,-1.70
2023-01-20T16:57:54.194Z,-1.70
2023-01-20T17:00:21.520Z,-1.70
2023-01-20T17:02:52.392Z,-1.70
2023-01-20T17:05:22.524Z,-1.70
2023-01-20T17:07:49.940Z,-1.70
2023-01-20T17:10:17.632Z,-1.80
2023-01-20T17:12:46.278Z,-2.00
2023-01-20T17:15:14.593Z,-2.10
2023-01-20T17:17:41.664Z,-2.10
2023-01-20T17:20:11.269Z,-2.20
2023-01-20T17:22:38.846Z,-2.30
2023-01-20T17:25:09.389Z,-2.40
2023-01-20T17:27:36.424Z,-2.40
2023-01-20T17:30:07.604Z,-2.40
2023-01-20T17:32:34.637Z,-2.50
2023-01-20T17:35:01.307Z,-2.50
2023-01-20T17:37:28.114Z,-2.60
2023-01-20T17:39:54.672Z,-2.60
2023-01-20T17:42:21.327Z,-2.80
2023-01-20T17:44:47.969Z,-2.80
2023-01-20T17:47:14.539Z,-2.70
2023-01-20T17:49:41.209Z,-2.90
2023-01-20T17:52:07.764Z,-2.90
2023-01-20T17:54:34.405Z,-2.90
2023-01-20T17:57:01.171Z,-2.90
2023-01-20T17:59:27.877Z,-2.80
2023-01-20T18:01:55.337Z,-2.80
2023-01-20T18:04:21.928Z,-2.70
2023-01-20T18:06:48.531Z,-2.70
2023-01-20T18:09:15.336Z,-2.60
2023-01-20T18:11:43.631Z,-2.70
2023-01-20T18:14:10.326Z,-2.50
2023-01-20T18:16:38.167Z,-2.40
2023-01-20T18:19:04.773Z,-2.30
2023-01-20T18:21:36.091Z,-2.20
2023-01-20T18:24:03.903Z,-2.10
2023-01-20T18:26:32.001Z,-2.10
2023-01-20T18:29:04.493Z,-2.10
2023-01-20T18:31:32.302Z,-2.10
2023-01-20T18:34:00.149Z,-2.00
2023-01-20T18:36:30.907Z,-2.00
2023-01-20T18:39:08.134Z,-2.00
2023-01-20T18:41:37.489Z,-2.00
2023-01-20T18:44:04.650Z,-2.00
2023-01-20T18:46:31.419Z,-2.00
2023-01-20T18:48:58.219Z,-1.90
2023-01-20T18:51:26.051Z,-1.80
2023-01-20T18:53:55.080Z,-1.90
2023-01-20T18:56:22.055Z,-1.80
2023-01-20T18:58:49.654Z,-1.90
2023-01-20T19:01:17.639Z,-1.80
2023-01-20T19:03:46.160Z,-1.70
2023-01-20T19:06:13.864Z,0.40
2023-01-20T19:08:41.398Z,-1.60
2023-01-20T19:11:10.106Z,-1.60
2023-01-20T19:13:36.849Z,-1.50
2023-01-20T19:16:03.909Z,-1.50
2023-01-20T19:18:30.617Z,0.20
2023-01-20T19:21:03.012Z,-1.50
2023-01-20T19:23:29.644Z,-1.50
2023-01-20T19:26:03.898Z,-1.70
2023-01-20T19:28:30.537Z,-1.70
2023-01-20T19:31:03.910Z,-1.80
2023-01-20T19:33:30.514Z,-1.80
2023-01-20T19:36:00.513Z,-1.80
2023-01-20T19:38:27.188Z,-1.90
2023-01-20T19:40:53.865Z,-2.00
2023-01-20T19:43:20.503Z,-1.90
2023-01-20T19:45:47.169Z,-2.00
2023-01-20T19:48:13.873Z,-2.00
2023-01-20T19:50:40.509Z,-2.00
2023-01-20T19:53:07.096Z,-2.00
2023-01-20T19:55:33.752Z,-2.00
2023-01-20T19:58:00.359Z,-1.90
2023-01-20T20:00:26.998Z,-1.90
2023-01-20T20:02:54.489Z,-3.60
2023-01-20T20:05:21.208Z,-1.80
2023-01-20T20:07:47.915Z,-1.80
2023-01-20T20:10:16.644Z,-1.90
2023-01-20T20:12:43.562Z,-1.80
2023-01-20T20:15:10.419Z,-1.80
2023-01-20T20:17:36.979Z,-1.90
2023-01-20T20:20:03.679Z,-1.90
2023-01-20T20:22:30.259Z,-2.00
2023-01-20T20:24:56.928Z,-2.00
2023-01-20T20:27:23.486Z,-2.00
2023-01-20T20:29:50.140Z,-2.10
2023-01-20T20:32:16.832Z,-2.10
2023-01-20T20:34:43.431Z,-2.10
2023-01-20T20:37:10.006Z,-2.10
2023-01-20T20:39:36.660Z,-2.10
2023-01-20T20:42:03.291Z,-2.00
2023-01-20T20:44:29.989Z,-2.00
2023-01-20T20:46:56.571Z,-2.00
2023-01-20T20:49:23.237Z,-2.00
2023-01-20T20:51:49.861Z,-2.00
2023-01-20T20:54:17.197Z,-2.10
2023-01-20T20:56:44.074Z,-2.10
2023-01-20T20:59:10.847Z,-2.00
2023-01-20T21:01:37.704Z,-2.00
2023-01-20T21:04:04.769Z,-1.90
2023-01-20T21:06:31.872Z,-1.90
2023-01-20T21:09:01.549Z,-1.90
2023-01-20T21:11:28.405Z,-1.90
2023-01-20T21:13:55.136Z,-1.90
2023-01-20T21:16:23.240Z,-1.90
2023-01-20T21:18:51.065Z,-1.90
2023-01-20T21:21:19.226Z,-1.90
2023-01-20T21:23:53.257Z,-1.80
2023-01-20T21:26:22.283Z,-1.80
2023-01-20T21:28:51.941Z,-1.80
2023-01-20T21:31:20.893Z,-1.90
2023-01-20T21:33:50.917Z,-1.90
2023-01-20T21:36:17.520Z,-1.90
2023-01-20T21:38:46.343Z,-1.90
2023-01-20T21:41:13.740Z,-1.80
2023-01-20T21:44:00.543Z,-1.90
2023-01-20T21:46:27.765Z,-2.00
2023-01-20T21:49:12.749Z,-2.00
2023-01-20T21:51:57.903Z,-2.00
2023-01-20T21:54:31.517Z,-2.00
2023-01-20T21:56:58.585Z,-2.10
2023-01-20T21:59:25.318Z,-2.10
2023-01-20T22:01:51.956Z,-2.10
2023-01-20T22:04:18.641Z,-2.10
2023-01-20T22:06:45.394Z,-2.20
2023-01-20T22:09:12.284Z,-2.10
2023-01-20T22:11:38.981Z,-2.20
2023-01-20T22:14:05.942Z,-2.20
2023-01-20T22:16:32.738Z,-2.20
2023-01-20T22:18:59.311Z,-2.30
2023-01-20T22:21:26.345Z,-2.30
2023-01-20T22:23:53.659Z,-2.30
2023-01-20T22:26:20.646Z,-2.20
2023-01-20T22:28:47.406Z,-2.30
2023-01-20T22:31:19.931Z,-2.30
2023-01-20T22:33:50.602Z,-2.30
2023-01-20T22:36:17.288Z,-2.40
2023-01-20T22:38:45.823Z,-2.40
2023-01-20T22:41:12.567Z,-2.50
2023-01-20T22:43:40.978Z,-2.60
2023-01-20T22:46:07.613Z,-2.60
2023-01-20T22:48:34.342Z,-2.60
2023-01-20T22:51:05.801Z,-2.60
2023-01-20T22:53:32.915Z,-2.70
2023-01-20T22:56:06.513Z,-2.60
2023-01-20T22:58:33.371Z,-2.50
2023-01-20T23:01:00.342Z,-2.40
2023-01-20T23:03:27.821Z,-2.30
2023-01-20T23:05:56.955Z,-2.30
2023-01-20T23:08:27.644Z,-2.30
2023-01-20T23:11:00.055Z,-2.30
2023-01-20T23:13:27.043Z,-2.30
2023-01-20T23:15:53.638Z,-2.40
2023-01-20T23:18:20.513Z,-2.40
2023-01-20T23:20:48.276Z,-2.30
2023-01-20T23:23:15.234Z,-2.40
2023-01-20T23:25:42.049Z,-2.30
2023-01-20T23:28:08.699Z,-2.30
2023-01-20T23:30:35.520Z,-2.40
2023-01-20T23:33:02.437Z,-2.50
2023-01-20T23:35:29.138Z,-2.50
2023-01-20T23:37:55.799Z,-2.50
2023-01-20T23:40:23.237Z,-2.40
2023-01-20T23:42:50.261Z,-2.40
2023-01-20T23:45:16.916Z,-2.40
2023-01-20T23:47:43.543Z,-2.40
2023-01-20T23:50:10.445Z,-2.50
2023-01-20T23:52:37.077Z,-2.60
2023-01-20T23:55:03.837Z,-2.60
2023-01-20T23:57:30.465Z,-2.70
2023-01-20T23:59:57.089Z,-2.80
